Terminal Aerodrome Forecast
Issued by NWS

Home | Current Version | Previous Version | Graphics & Text | Print | Product List | Glossary On
Versions: 1 2 3 4 5 6 7 8 9 10 11 12 13 14 15 16 17 18 19 20
000
FTUS43 KICT 290845 AAA
TAFHUT
TAF AMD
KHUT 290845Z 2909/3006 01011KT P6SM VCTS SCT080CB
      TEMPO 2909/2912 -TSRA BKN080CB
     FM291200 02011KT P6SM VCSH BKN080
     FM291800 07013KT P6SM VCSH BKN080=

USA.gov is the U.S. government's official web portal to all federal, state and local government web resources and services.